createdAt,value
2022-11-13T00:04:58.338Z,0.00
2022-11-13T00:16:58.791Z,0.00
2022-11-13T00:28:59.210Z,0.00
2022-11-13T00:40:59.744Z,0.00
2022-11-13T00:53:00.175Z,0.24
2022-11-13T01:05:00.611Z,0.09
2022-11-13T01:17:01.060Z,0.00
2022-11-13T01:29:01.502Z,0.00
2022-11-13T01:41:02.006Z,0.00
2022-11-13T01:53:02.413Z,0.09
2022-11-13T02:05:02.855Z,0.14
2022-11-13T02:17:03.301Z,0.00
2022-11-13T02:29:03.797Z,0.11
2022-11-13T02:41:04.346Z,0.00
2022-11-13T02:53:04.667Z,0.02
2022-11-13T03:05:12.010Z,0.01
2022-11-13T03:17:05.638Z,0.00
2022-11-13T03:29:06.055Z,0.10
2022-11-13T03:41:06.468Z,0.00
2022-11-13T03:53:06.952Z,0.00
2022-11-13T04:05:07.416Z,0.00
2022-11-13T04:17:07.839Z,0.00
2022-11-13T04:29:08.293Z,0.00
2022-11-13T04:41:08.711Z,0.00
2022-11-13T04:53:09.219Z,0.04
2022-11-13T05:05:09.628Z,0.00
2022-11-13T05:17:10.118Z,0.07
2022-11-13T05:29:10.565Z,0.29
2022-11-13T05:41:11.031Z,0.11
2022-11-13T05:53:11.450Z,0.04
2022-11-13T06:05:11.915Z,0.04
2022-11-13T06:17:12.344Z,0.00
2022-11-13T06:29:12.822Z,0.00
2022-11-13T06:41:13.269Z,0.00
2022-11-13T06:53:13.704Z,0.01
2022-11-13T07:05:14.158Z,0.01
2022-11-13T07:17:14.598Z,0.01
2022-11-13T07:29:15.066Z,0.01
2022-11-13T07:41:15.530Z,0.01
2022-11-13T07:53:15.949Z,0.04
2022-11-13T08:05:16.461Z,0.00
2022-11-13T08:17:16.852Z,0.05
2022-11-13T08:29:17.320Z,0.48
2022-11-13T08:41:17.797Z,0.81
2022-11-13T09:10:48.912Z,1.21
2022-11-13T09:22:49.334Z,1.72
2022-11-13T09:34:49.824Z,1.88
2022-11-13T09:46:50.267Z,1.16
2022-11-13T09:58:50.750Z,2.16
2022-11-13T10:10:55.449Z,1.58
2022-11-13T10:22:51.620Z,1.08
2022-11-13T10:34:52.075Z,2.91
2022-11-13T10:46:52.563Z,2.11
2022-11-13T10:58:53.002Z,1.77
2022-11-13T11:10:53.432Z,2.03
2022-11-13T11:22:53.867Z,1.25
2022-11-13T11:34:58.996Z,1.89
2022-11-13T11:46:54.818Z,1.88
2022-11-13T11:58:55.258Z,2.18
2022-11-13T12:10:55.704Z,1.33
2022-11-13T12:22:56.206Z,0.78
2022-11-13T12:34:56.630Z,1.22
2022-11-13T12:46:57.098Z,1.93
2022-11-13T12:59:23.752Z,1.95
2022-11-13T13:10:58.011Z,1.49
2022-11-13T13:22:58.452Z,1.14
2022-11-13T13:34:58.914Z,1.68
2022-11-13T13:46:59.360Z,1.81
2022-11-13T13:58:59.843Z,1.48
2022-11-13T14:11:00.285Z,0.68
2022-11-13T14:23:00.747Z,0.26
2022-11-13T14:35:01.188Z,0.30
2022-11-13T14:47:01.661Z,0.52
2022-11-13T14:59:02.098Z,0.15
2022-11-13T15:11:02.557Z,0.04
2022-11-13T15:23:03.001Z,0.03
2022-11-13T15:35:03.479Z,0.00
2022-11-13T15:47:03.916Z,0.00
2022-11-13T15:59:04.367Z,0.00
2022-11-13T16:11:04.888Z,0.00
2022-11-13T16:23:05.293Z,0.00
2022-11-13T16:35:05.707Z,0.14
2022-11-13T16:47:06.167Z,0.27
2022-11-13T16:59:06.591Z,0.16
2022-11-13T17:11:07.104Z,0.04
2022-11-13T17:23:07.655Z,0.78
2022-11-13T17:35:08.170Z,0.09
2022-11-13T17:59:09.175Z,0.07
2022-11-13T18:11:09.472Z,0.16
2022-11-13T18:23:09.779Z,0.10
2022-11-13T18:35:10.215Z,0.01
2022-11-13T18:47:10.724Z,0.00
2022-11-13T18:59:11.168Z,0.00
2022-11-13T19:11:11.615Z,0.00
2022-11-13T19:23:12.069Z,0.00
2022-11-13T19:35:12.517Z,0.00
2022-11-13T19:47:12.983Z,0.00
2022-11-13T19:59:13.388Z,0.02
2022-11-13T20:11:13.875Z,0.00
2022-11-13T20:23:14.313Z,0.00
2022-11-13T20:35:14.778Z,0.00
2022-11-13T20:47:15.189Z,0.00
2022-11-13T20:59:15.663Z,0.00
2022-11-13T21:11:16.132Z,0.00
2022-11-13T21:23:16.578Z,0.00
2022-11-13T21:35:22.342Z,0.00
2022-11-13T21:47:17.443Z,0.04
2022-11-13T21:59:17.955Z,0.18
2022-11-13T22:11:18.384Z,0.08
2022-11-13T22:23:18.831Z,0.83
2022-11-13T22:35:19.280Z,0.08
2022-11-13T22:47:19.754Z,0.07
2022-11-13T22:59:20.135Z,0.04
2022-11-13T23:11:20.628Z,0.08
2022-11-13T23:23:21.087Z,0.15
2022-11-13T23:35:21.561Z,0.00
2022-11-13T23:47:21.993Z,0.00
2022-11-13T23:59:22.457Z,0.00
